sensor_id;sensor_type;location;lat;lon;timestamp;pressure;altitude;pressure_sealevel;temperature;humidity
31337;BME280;22846;42.654;23.314;2024-01-07T00:02:25;93029.25;;;24.54;49.74
31337;BME280;22846;42.654;23.314;2024-01-07T00:04:51;93022.56;;;24.55;49.62
31337;BME280;22846;42.654;23.314;2024-01-07T00:07:16;93017.94;;;24.61;49.68
31337;BME280;22846;42.654;23.314;2024-01-07T00:09:42;93015.75;;;24.65;49.40
31337;BME280;22846;42.654;23.314;2024-01-07T00:12:07;93007.81;;;24.67;49.50
31337;BME280;22846;42.654;23.314;2024-01-07T00:14:33;92996.16;;;24.67;49.44
31337;BME280;22846;42.654;23.314;2024-01-07T00:16:58;93000.19;;;24.71;49.18
31337;BME280;22846;42.654;23.314;2024-01-07T00:19:23;93003.66;;;24.72;49.20
31337;BME280;22846;42.654;23.314;2024-01-07T00:21:49;92990.00;;;24.72;49.32
31337;BME280;22846;42.654;23.314;2024-01-07T00:24:15;92971.50;;;24.61;49.48
31337;BME280;22846;42.654;23.314;2024-01-07T00:26:41;92992.00;;;24.71;49.69
31337;BME280;22846;42.654;23.314;2024-01-07T00:29:06;92987.25;;;24.72;49.48
31337;BME280;22846;42.654;23.314;2024-01-07T00:31:31;92977.59;;;24.71;49.37
31337;BME280;22846;42.654;23.314;2024-01-07T00:33:57;92975.88;;;24.73;49.54
31337;BME280;22846;42.654;23.314;2024-01-07T00:36:22;92968.91;;;24.72;49.40
31337;BME280;22846;42.654;23.314;2024-01-07T00:38:48;92959.22;;;24.71;49.35
31337;BME280;22846;42.654;23.314;2024-01-07T00:41:13;92958.94;;;24.69;49.71
31337;BME280;22846;42.654;23.314;2024-01-07T00:43:38;92955.75;;;24.71;49.68
31337;BME280;22846;42.654;23.314;2024-01-07T00:46:04;92944.47;;;24.63;49.75
31337;BME280;22846;42.654;23.314;2024-01-07T00:48:29;92946.78;;;24.70;49.77
31337;BME280;22846;42.654;23.314;2024-01-07T00:50:55;92939.34;;;24.71;49.90
31337;BME280;22846;42.654;23.314;2024-01-07T00:53:20;92934.63;;;24.71;49.67
31337;BME280;22846;42.654;23.314;2024-01-07T00:55:46;92924.44;;;24.72;49.95
31337;BME280;22846;42.654;23.314;2024-01-07T00:58:11;92916.25;;;24.72;49.60
31337;BME280;22846;42.654;23.314;2024-01-07T01:00:36;92925.19;;;24.72;49.95
31337;BME280;22846;42.654;23.314;2024-01-07T01:03:02;92911.75;;;24.69;49.95
31337;BME280;22846;42.654;23.314;2024-01-07T01:05:27;92919.75;;;24.72;49.69
31337;BME280;22846;42.654;23.314;2024-01-07T01:07:53;92925.19;;;24.72;50.00
31337;BME280;22846;42.654;23.314;2024-01-07T01:10:18;92918.97;;;24.72;49.82
31337;BME280;22846;42.654;23.314;2024-01-07T01:12:44;92905.31;;;24.72;49.79
31337;BME280;22846;42.654;23.314;2024-01-07T01:15:10;92900.41;;;24.76;49.92
31337;BME280;22846;42.654;23.314;2024-01-07T01:17:35;92902.41;;;24.75;50.02
31337;BME280;22846;42.654;23.314;2024-01-07T01:20:01;92885.47;;;24.71;49.93
31337;BME280;22846;42.654;23.314;2024-01-07T01:22:26;92880.06;;;24.77;49.89
31337;BME280;22846;42.654;23.314;2024-01-07T01:24:52;92882.78;;;24.77;49.99
31337;BME280;22846;42.654;23.314;2024-01-07T01:27:18;92861.44;;;24.75;50.03
31337;BME280;22846;42.654;23.314;2024-01-07T01:29:44;92858.94;;;24.77;50.06
31337;BME280;22846;42.654;23.314;2024-01-07T01:32:10;92841.00;;;24.71;49.98
31337;BME280;22846;42.654;23.314;2024-01-07T01:34:35;92846.78;;;24.78;49.94
31337;BME280;22846;42.654;23.314;2024-01-07T01:37:01;92840.84;;;24.79;50.05
31337;BME280;22846;42.654;23.314;2024-01-07T01:39:28;92832.66;;;24.79;50.04
31337;BME280;22846;42.654;23.314;2024-01-07T01:41:54;92826.72;;;24.81;49.84
31337;BME280;22846;42.654;23.314;2024-01-07T01:44:19;92827.44;;;24.81;49.66
31337;BME280;22846;42.654;23.314;2024-01-07T01:46:45;92817.28;;;24.82;49.54
31337;BME280;22846;42.654;23.314;2024-01-07T01:49:12;92817.28;;;24.82;49.86
31337;BME280;22846;42.654;23.314;2024-01-07T01:51:37;92791.19;;;24.81;49.63
31337;BME280;22846;42.654;23.314;2024-01-07T01:54:03;92795.69;;;24.84;49.81
31337;BME280;22846;42.654;23.314;2024-01-07T01:56:29;92790.22;;;24.84;49.75
31337;BME280;22846;42.654;23.314;2024-01-07T01:58:55;92784.97;;;24.80;49.91
31337;BME280;22846;42.654;23.314;2024-01-07T02:01:22;92787.75;;;24.86;49.92
31337;BME280;22846;42.654;23.314;2024-01-07T02:03:48;92783.03;;;24.86;49.80
31337;BME280;22846;42.654;23.314;2024-01-07T02:06:14;92786.53;;;24.87;50.02
31337;BME280;22846;42.654;23.314;2024-01-07T02:08:41;92790.47;;;24.86;49.62
31337;BME280;22846;42.654;23.314;2024-01-07T02:13:41;92788.50;;;24.86;49.69
31337;BME280;22846;42.654;23.314;2024-01-07T02:16:06;92774.84;;;24.86;49.73
31337;BME280;22846;42.654;23.314;2024-01-07T02:18:32;92774.34;;;24.88;49.50
31337;BME280;22846;42.654;23.314;2024-01-07T02:20:57;92760.69;;;24.88;49.76
31337;BME280;22846;42.654;23.314;2024-01-07T02:23:23;92754.00;;;24.89;49.81
31337;BME280;22846;42.654;23.314;2024-01-07T02:25:48;92729.13;;;24.87;49.91
31337;BME280;22846;42.654;23.314;2024-01-07T02:28:13;92708.78;;;24.88;49.82
31337;BME280;22846;42.654;23.314;2024-01-07T02:30:39;92698.34;;;24.86;49.51
31337;BME280;22846;42.654;23.314;2024-01-07T02:33:04;92697.84;;;24.88;49.48
31337;BME280;22846;42.654;23.314;2024-01-07T02:35:30;92693.91;;;24.89;49.54
31337;BME280;22846;42.654;23.314;2024-01-07T02:37:55;92682.97;;;24.89;49.56
31337;BME280;22846;42.654;23.314;2024-01-07T02:40:21;92687.69;;;24.88;49.94
31337;BME280;22846;42.654;23.314;2024-01-07T02:42:46;92691.16;;;24.89;49.67
31337;BME280;22846;42.654;23.314;2024-01-07T02:45:11;92694.63;;;24.89;49.75
31337;BME280;22846;42.654;23.314;2024-01-07T02:47:37;92707.06;;;24.90;49.88
31337;BME280;22846;42.654;23.314;2024-01-07T02:50:02;92694.16;;;24.91;49.71
31337;BME280;22846;42.654;23.314;2024-01-07T02:52:28;92707.31;;;24.92;49.80
31337;BME280;22846;42.654;23.314;2024-01-07T02:54:53;92697.13;;;24.93;49.65
31337;BME280;22846;42.654;23.314;2024-01-07T02:57:19;92703.84;;;24.92;49.47
31337;BME280;22846;42.654;23.314;2024-01-07T02:59:44;92701.88;;;24.92;49.47
31337;BME280;22846;42.654;23.314;2024-01-07T03:02:09;92713.53;;;24.93;49.68
31337;BME280;22846;42.654;23.314;2024-01-07T03:04:35;92716.25;;;24.93;49.57
31337;BME280;22846;42.654;23.314;2024-01-07T03:07:00;92706.84;;;24.94;49.73
31337;BME280;22846;42.654;23.314;2024-01-07T03:09:25;92724.47;;;24.93;49.55
31337;BME280;22846;42.654;23.314;2024-01-07T03:11:51;92716.03;;;24.91;49.47
31337;BME280;22846;42.654;23.314;2024-01-07T03:14:16;92740.38;;;24.94;49.80
31337;BME280;22846;42.654;23.314;2024-01-07T03:16:45;92743.38;;;24.96;49.60
31337;BME280;22846;42.654;23.314;2024-01-07T03:19:11;92741.63;;;24.93;49.82
31337;BME280;22846;42.654;23.314;2024-01-07T03:21:36;92753.06;;;24.97;49.25
31337;BME280;22846;42.654;23.314;2024-01-07T03:24:01;92754.56;;;24.98;49.39
31337;BME280;22846;42.654;23.314;2024-01-07T03:26:30;92751.81;;;24.98;49.57
31337;BME280;22846;42.654;23.314;2024-01-07T03:28:58;92747.13;;;24.99;49.50
31337;BME280;22846;42.654;23.314;2024-01-07T03:31:25;92742.63;;;24.96;49.23
31337;BME280;22846;42.654;23.314;2024-01-07T03:33:51;92737.94;;;25.02;49.26
31337;BME280;22846;42.654;23.314;2024-01-07T03:36:16;92736.72;;;25.03;49.20
31337;BME280;22846;42.654;23.314;2024-01-07T03:38:41;92736.97;;;25.05;49.56
31337;BME280;22846;42.654;23.314;2024-01-07T03:41:07;92736.25;;;25.04;49.43
31337;BME280;22846;42.654;23.314;2024-01-07T03:43:33;92722.50;;;24.93;49.50
31337;BME280;22846;42.654;23.314;2024-01-07T03:45:59;92729.06;;;25.07;49.20
31337;BME280;22846;42.654;23.314;2024-01-07T03:48:25;92707.09;;;24.96;49.61
31337;BME280;22846;42.654;23.314;2024-01-07T03:50:51;92717.63;;;25.08;49.25
31337;BME280;22846;42.654;23.314;2024-01-07T03:53:17;92716.88;;;25.08;49.23
31337;BME280;22846;42.654;23.314;2024-01-07T03:55:42;92717.91;;;25.10;49.49
31337;BME280;22846;42.654;23.314;2024-01-07T03:58:08;92716.69;;;25.11;49.45
31337;BME280;22846;42.654;23.314;2024-01-07T04:00:34;92708.69;;;25.08;49.32
31337;BME280;22846;42.654;23.314;2024-01-07T04:03:00;92711.22;;;25.11;49.13
31337;BME280;22846;42.654;23.314;2024-01-07T04:05:25;92714.22;;;25.13;49.29
31337;BME280;22846;42.654;23.314;2024-01-07T04:07:51;92697.06;;;25.13;49.30
31337;BME280;22846;42.654;23.314;2024-01-07T04:10:17;92687.63;;;25.14;49.40
31337;BME280;22846;42.654;23.314;2024-01-07T04:12:42;92691.13;;;25.14;49.36
31337;BME280;22846;42.654;23.314;2024-01-07T04:15:08;92693.84;;;25.14;49.12
31337;BME280;22846;42.654;23.314;2024-01-07T04:17:34;92699.06;;;25.12;49.02
31337;BME280;22846;42.654;23.314;2024-01-07T04:19:59;92703.53;;;25.15;49.23
31337;BME280;22846;42.654;23.314;2024-01-07T04:22:25;92706.25;;;25.15;49.00
31337;BME280;22846;42.654;23.314;2024-01-07T04:24:50;92698.06;;;25.15;49.13
31337;BME280;22846;42.654;23.314;2024-01-07T04:27:16;92695.31;;;25.15;48.89
31337;BME280;22846;42.654;23.314;2024-01-07T04:29:41;92691.34;;;25.16;49.31
31337;BME280;22846;42.654;23.314;2024-01-07T04:32:06;92691.34;;;25.16;49.31
31337;BME280;22846;42.654;23.314;2024-01-07T04:34:32;92677.22;;;25.18;49.25
31337;BME280;22846;42.654;23.314;2024-01-07T04:36:57;92669.75;;;25.18;49.28
31337;BME280;22846;42.654;23.314;2024-01-07T04:39:23;92665.03;;;25.19;49.35
31337;BME280;22846;42.654;23.314;2024-01-07T04:41:48;92669.75;;;25.18;48.88
31337;BME280;22846;42.654;23.314;2024-01-07T04:44:13;92671.75;;;25.18;49.23
31337;BME280;22846;42.654;23.314;2024-01-07T04:46:39;92653.22;;;25.02;49.12
31337;BME280;22846;42.654;23.314;2024-01-07T04:49:05;92675.22;;;25.18;49.14
31337;BME280;22846;42.654;23.314;2024-01-07T04:51:32;92628.31;;;24.89;49.26
31337;BME280;22846;42.654;23.314;2024-01-07T04:53:57;92668.53;;;25.19;49.15
31337;BME280;22846;42.654;23.314;2024-01-07T04:56:23;92675.22;;;25.18;49.11
31337;BME280;22846;42.654;23.314;2024-01-07T04:58:48;92682.94;;;25.20;49.04
31337;BME280;22846;42.654;23.314;2024-01-07T05:01:14;92690.13;;;25.17;48.97
31337;BME280;22846;42.654;23.314;2024-01-07T05:03:39;92667.00;;;25.13;48.89
31337;BME280;22846;42.654;23.314;2024-01-07T05:06:05;92669.53;;;25.22;48.84
31337;BME280;22846;42.654;23.314;2024-01-07T05:08:30;92678.50;;;25.22;49.27
31337;BME280;22846;42.654;23.314;2024-01-07T05:10:56;92666.28;;;25.18;49.10
31337;BME280;22846;42.654;23.314;2024-01-07T05:13:21;92660.34;;;25.25;49.09
31337;BME280;22846;42.654;23.314;2024-01-07T05:15:47;92661.84;;;25.26;49.00
31337;BME280;22846;42.654;23.314;2024-01-07T05:18:22;92664.09;;;25.27;49.11
31337;BME280;22846;42.654;23.314;2024-01-07T05:20:47;92658.84;;;25.24;49.79
31337;BME280;22846;42.654;23.314;2024-01-07T05:23:13;92651.09;;;25.11;49.64
31337;BME280;22846;42.654;23.314;2024-01-07T05:25:38;92664.53;;;25.15;49.57
31337;BME280;22846;42.654;23.314;2024-01-07T05:28:04;92661.47;;;25.07;49.79
31337;BME280;22846;42.654;23.314;2024-01-07T05:30:29;92665.41;;;25.01;49.78
31337;BME280;22846;42.654;23.314;2024-01-07T05:32:55;92672.06;;;24.94;49.73
31337;BME280;22846;42.654;23.314;2024-01-07T05:35:20;92669.56;;;24.91;49.65
31337;BME280;22846;42.654;23.314;2024-01-07T05:37:46;92668.81;;;24.90;49.60
31337;BME280;22846;42.654;23.314;2024-01-07T05:40:11;92665.09;;;24.93;49.80
31337;BME280;22846;42.654;23.314;2024-01-07T05:42:37;92659.69;;;24.99;49.56
31337;BME280;22846;42.654;23.314;2024-01-07T05:45:02;92652.50;;;25.01;49.48
31337;BME280;22846;42.654;23.314;2024-01-07T05:47:28;92652.75;;;25.03;49.89
31337;BME280;22846;42.654;23.314;2024-01-07T05:49:53;92652.53;;;25.07;49.75
31337;BME280;22846;42.654;23.314;2024-01-07T05:52:19;92672.66;;;25.09;49.58
31337;BME280;22846;42.654;23.314;2024-01-07T05:54:44;92660.41;;;24.99;49.49
31337;BME280;22846;42.654;23.314;2024-01-07T05:57:11;92678.19;;;25.15;49.66
31337;BME280;22846;42.654;23.314;2024-01-07T05:59:37;92678.19;;;25.15;49.04
31337;BME280;22846;42.654;23.314;2024-01-07T06:02:03;92669.03;;;25.18;49.17
31337;BME280;22846;42.654;23.314;2024-01-07T06:04:28;92661.06;;;25.20;49.24
31337;BME280;22846;42.654;23.314;2024-01-07T06:06:54;92648.88;;;25.21;49.05
31337;BME280;22846;42.654;23.314;2024-01-07T06:09:19;92660.09;;;25.23;49.22
31337;BME280;22846;42.654;23.314;2024-01-07T06:11:45;92657.34;;;25.23;49.16
31337;BME280;22846;42.654;23.314;2024-01-07T06:14:10;92651.38;;;25.24;49.20
31337;BME280;22846;42.654;23.314;2024-01-07T06:16:35;92644.91;;;25.22;49.40
31337;BME280;22846;42.654;23.314;2024-01-07T06:19:01;92660.09;;;25.23;48.94
31337;BME280;22846;42.654;23.314;2024-01-07T06:21:26;92668.06;;;25.26;48.96
31337;BME280;22846;42.654;23.314;2024-01-07T06:23:52;92664.59;;;25.26;50.11
31337;BME280;22846;42.654;23.314;2024-01-07T06:26:17;92649.38;;;25.19;49.65
31337;BME280;22846;42.654;23.314;2024-01-07T06:28:43;92664.00;;;25.11;48.97
31337;BME280;22846;42.654;23.314;2024-01-07T06:31:08;92659.72;;;25.04;49.45
31337;BME280;22846;42.654;23.314;2024-01-07T06:33:35;92665.16;;;24.99;49.57
31337;BME280;22846;42.654;23.314;2024-01-07T06:36:00;92672.81;;;24.95;50.01
31337;BME280;22846;42.654;23.314;2024-01-07T06:38:26;92681.50;;;24.93;49.55
31337;BME280;22846;42.654;23.314;2024-01-07T06:40:51;92688.25;;;24.98;50.06
31337;BME280;22846;42.654;23.314;2024-01-07T06:43:19;92688.50;;;25.00;49.47
31337;BME280;22846;42.654;23.314;2024-01-07T06:45:44;92698.44;;;25.03;49.93
31337;BME280;22846;42.654;23.314;2024-01-07T06:48:10;92683.03;;;25.00;49.56
31337;BME280;22846;42.654;23.314;2024-01-07T06:50:35;92686.03;;;25.02;49.30
31337;BME280;22846;42.654;23.314;2024-01-07T06:53:01;92693.78;;;25.09;49.36
31337;BME280;22846;42.654;23.314;2024-01-07T06:55:26;92689.56;;;25.08;49.33
31337;BME280;22846;42.654;23.314;2024-01-07T06:57:52;92681.66;;;25.10;49.29
31337;BME280;22846;42.654;23.314;2024-01-07T07:00:17;92689.84;;;25.15;49.56
31337;BME280;22846;42.654;23.314;2024-01-07T07:02:43;92698.81;;;25.16;49.05
31337;BME280;22846;42.654;23.314;2024-01-07T07:05:08;92694.59;;;25.15;49.24
31337;BME280;22846;42.654;23.314;2024-01-07T07:07:34;92693.88;;;25.20;48.96
31337;BME280;22846;42.654;23.314;2024-01-07T07:10:00;92696.88;;;25.22;49.04
31337;BME280;22846;42.654;23.314;2024-01-07T07:12:25;92683.91;;;25.17;49.04
31337;BME280;22846;42.654;23.314;2024-01-07T07:14:50;92689.66;;;25.24;48.89
31337;BME280;22846;42.654;23.314;2024-01-07T07:17:16;92678.72;;;25.24;49.18
31337;BME280;22846;42.654;23.314;2024-01-07T07:19:41;92665.28;;;25.21;49.10
31337;BME280;22846;42.654;23.314;2024-01-07T07:22:07;92650.66;;;25.24;48.87
31337;BME280;22846;42.654;23.314;2024-01-07T07:24:32;92672.56;;;25.29;49.20
31337;BME280;22846;42.654;23.314;2024-01-07T07:26:58;92666.59;;;25.31;48.77
31337;BME280;22846;42.654;23.314;2024-01-07T07:29:23;92669.06;;;25.29;49.90
31337;BME280;22846;42.654;23.314;2024-01-07T07:31:49;92679.97;;;25.23;50.09
31337;BME280;22846;42.654;23.314;2024-01-07T07:34:14;92691.34;;;25.16;49.41
31337;BME280;22846;42.654;23.314;2024-01-07T07:36:40;92694.53;;;25.09;49.95
31337;BME280;22846;42.654;23.314;2024-01-07T07:39:06;92677.34;;;25.03;50.08
31337;BME280;22846;42.654;23.314;2024-01-07T07:41:32;92677.31;;;24.98;49.87
31337;BME280;22846;42.654;23.314;2024-01-07T07:43:57;92676.09;;;24.99;49.60
31337;BME280;22846;42.654;23.314;2024-01-07T07:46:23;92668.16;;;25.01;49.54
31337;BME280;22846;42.654;23.314;2024-01-07T07:48:48;92670.66;;;25.04;49.59
31337;BME280;22846;42.654;23.314;2024-01-07T07:51:14;92669.19;;;25.09;49.19
31337;BME280;22846;42.654;23.314;2024-01-07T07:53:39;92665.50;;;25.12;49.13
31337;BME280;22846;42.654;23.314;2024-01-07T07:56:06;92677.47;;;25.14;49.19
31337;BME280;22846;42.654;23.314;2024-01-07T07:58:31;92665.53;;;25.17;49.11
31337;BME280;22846;42.654;23.314;2024-01-07T08:00:57;92658.31;;;25.20;49.39
31337;BME280;22846;42.654;23.314;2024-01-07T08:03:23;92655.13;;;25.21;49.18
31337;BME280;22846;42.654;23.314;2024-01-07T08:05:48;92671.28;;;25.25;48.93
31337;BME280;22846;42.654;23.314;2024-01-07T08:08:15;92671.28;;;25.25;49.32
31337;BME280;22846;42.654;23.314;2024-01-07T08:10:42;92682.72;;;25.29;49.29
31337;BME280;22846;42.654;23.314;2024-01-07T08:13:07;92674.53;;;25.29;49.11
31337;BME280;22846;42.654;23.314;2024-01-07T08:15:34;92668.59;;;25.30;48.98
31337;BME280;22846;42.654;23.314;2024-01-07T08:17:59;92661.84;;;25.26;49.28
31337;BME280;22846;42.654;23.314;2024-01-07T08:20:25;92670.81;;;25.32;49.47
31337;BME280;22846;42.654;23.314;2024-01-07T08:22:50;92662.63;;;25.32;49.32
31337;BME280;22846;42.654;23.314;2024-01-07T08:25:16;92653.19;;;25.33;49.41
31337;BME280;22846;42.654;23.314;2024-01-07T08:27:41;92654.69;;;25.34;49.27
31337;BME280;22846;42.654;23.314;2024-01-07T08:30:07;92656.41;;;25.31;49.27
31337;BME280;22846;42.654;23.314;2024-01-07T08:32:33;92664.13;;;25.33;49.42
31337;BME280;22846;42.654;23.314;2024-01-07T08:35:00;92664.38;;;25.35;49.11
31337;BME280;22846;42.654;23.314;2024-01-07T08:37:26;92659.66;;;25.35;49.21
31337;BME280;22846;42.654;23.314;2024-01-07T08:39:51;92667.81;;;25.30;49.85
31337;BME280;22846;42.654;23.314;2024-01-07T08:42:17;92662.56;;;25.21;49.55
31337;BME280;22846;42.654;23.314;2024-01-07T08:44:42;92669.28;;;25.25;49.67
31337;BME280;22846;42.654;23.314;2024-01-07T08:47:07;92669.47;;;25.11;37.73
31337;BME280;22846;42.654;23.314;2024-01-07T08:49:33;92662.97;;;24.72;38.21
31337;BME280;22846;42.654;23.314;2024-01-07T08:51:59;92654.88;;;24.52;44.50
31337;BME280;22846;42.654;23.314;2024-01-07T08:54:24;92665.28;;;24.48;46.41
31337;BME280;22846;42.654;23.314;2024-01-07T08:56:50;92660.59;;;24.54;45.86
31337;BME280;22846;42.654;23.314;2024-01-07T08:59:16;92652.72;;;24.62;45.46
31337;BME280;22846;42.654;23.314;2024-01-07T09:01:41;92655.75;;;24.69;46.45
31337;BME280;22846;42.654;23.314;2024-01-07T09:04:06;92640.59;;;24.68;42.70
31337;BME280;22846;42.654;23.314;2024-01-07T09:06:32;92634.56;;;24.59;44.68
31337;BME280;22846;42.654;23.314;2024-01-07T09:08:57;92650.50;;;24.66;45.84
31337;BME280;22846;42.654;23.314;2024-01-07T09:11:23;92646.78;;;24.63;45.68
31337;BME280;22846;42.654;23.314;2024-01-07T09:13:49;92654.97;;;24.63;46.08
31337;BME280;22846;42.654;23.314;2024-01-07T09:16:15;92657.88;;;24.54;47.22
31337;BME280;22846;42.654;23.314;2024-01-07T09:18:41;92652.31;;;24.43;47.26
31337;BME280;22846;42.654;23.314;2024-01-07T09:21:09;92665.06;;;24.52;47.29
31337;BME280;22846;42.654;23.314;2024-01-07T09:23:34;92667.28;;;24.53;47.28
31337;BME280;22846;42.654;23.314;2024-01-07T09:26:01;92659.06;;;24.48;47.17
31337;BME280;22846;42.654;23.314;2024-01-07T09:28:27;92641.81;;;24.36;47.85
31337;BME280;22846;42.654;23.314;2024-01-07T09:30:52;92666.34;;;24.56;47.85
31337;BME280;22846;42.654;23.314;2024-01-07T09:33:18;92657.88;;;24.54;47.95
31337;BME280;22846;42.654;23.314;2024-01-07T09:35:45;92664.84;;;24.55;48.21
31337;BME280;22846;42.654;23.314;2024-01-07T09:38:10;92655.88;;;24.55;48.32
31337;BME280;22846;42.654;23.314;2024-01-07T09:40:38;92662.59;;;24.54;48.23
31337;BME280;22846;42.654;23.314;2024-01-07T09:43:03;92657.88;;;24.54;48.56
31337;BME280;22846;42.654;23.314;2024-01-07T09:45:29;92640.94;;;24.50;48.59
31337;BME280;22846;42.654;23.314;2024-01-07T09:47:55;92642.44;;;24.51;49.11
31337;BME280;22846;42.654;23.314;2024-01-07T09:50:22;92649.19;;;24.56;49.24
31337;BME280;22846;42.654;23.314;2024-01-07T09:52:48;92653.88;;;24.50;49.35
31337;BME280;22846;42.654;23.314;2024-01-07T09:55:23;92645.91;;;24.46;49.62
31337;BME280;22846;42.654;23.314;2024-01-07T09:57:51;92639.94;;;24.48;49.36
31337;BME280;22846;42.654;23.314;2024-01-07T10:00:17;92623.78;;;24.44;49.94
31337;BME280;22846;42.654;23.314;2024-01-07T10:02:43;92644.50;;;24.56;48.01
31337;BME280;22846;42.654;23.314;2024-01-07T10:05:08;92643.72;;;24.56;47.73
31337;BME280;22846;42.654;23.314;2024-01-07T10:07:34;92632.81;;;24.56;48.46
31337;BME280;22846;42.654;23.314;2024-01-07T10:12:38;92612.56;;;24.42;49.28
31337;BME280;22846;42.654;23.314;2024-01-07T10:15:04;92589.69;;;24.34;49.71
31337;BME280;22846;42.654;23.314;2024-01-07T10:17:30;92622.91;;;24.58;49.74
31337;BME280;22846;42.654;23.314;2024-01-07T10:19:56;92611.28;;;24.63;49.62
31337;BME280;22846;42.654;23.314;2024-01-07T10:22:22;92604.09;;;24.66;49.47
31337;BME280;22846;42.654;23.314;2024-01-07T10:24:47;92605.81;;;24.63;49.52
31337;BME280;22846;42.654;23.314;2024-01-07T10:27:14;92611.28;;;24.63;49.30
31337;BME280;22846;42.654;23.314;2024-01-07T10:29:39;92576.69;;;24.55;49.45
31337;BME280;22846;42.654;23.314;2024-01-07T10:32:05;92599.63;;;24.68;49.32
31337;BME280;22846;42.654;23.314;2024-01-07T10:34:32;92588.97;;;24.70;48.90
31337;BME280;22846;42.654;23.314;2024-01-07T10:36:59;92583.00;;;24.66;49.40
31337;BME280;22846;42.654;23.314;2024-01-07T10:39:25;92587.50;;;24.75;49.19
31337;BME280;22846;42.654;23.314;2024-01-07T10:41:52;92572.06;;;24.66;49.26
31337;BME280;22846;42.654;23.314;2024-01-07T10:44:24;92582.00;;;24.69;49.13
31337;BME280;22846;42.654;23.314;2024-01-07T10:46:53;92578.81;;;24.71;48.91
31337;BME280;22846;42.654;23.314;2024-01-07T10:49:20;92575.88;;;24.79;47.55
31337;BME280;22846;42.654;23.314;2024-01-07T10:51:56;92597.97;;;24.81;47.75
31337;BME280;22846;42.654;23.314;2024-01-07T10:54:28;92592.03;;;24.83;48.09
31337;BME280;22846;42.654;23.314;2024-01-07T10:56:58;92586.81;;;24.85;48.26
31337;BME280;22846;42.654;23.314;2024-01-07T10:59:24;92588.56;;;24.88;47.91
31337;BME280;22846;42.654;23.314;2024-01-07T11:01:51;92581.34;;;24.85;47.90
31337;BME280;22846;42.654;23.314;2024-01-07T11:07:32;92580.91;;;24.92;48.36
31337;BME280;22846;42.654;23.314;2024-01-07T11:10:13;92588.09;;;24.95;48.28
31337;BME280;22846;42.654;23.314;2024-01-07T11:12:40;92602.31;;;24.99;48.36
31337;BME280;22846;42.654;23.314;2024-01-07T11:15:05;92590.38;;;25.02;48.37
31337;BME280;22846;42.654;23.314;2024-01-07T11:20:06;92589.59;;;24.96;48.22
31337;BME280;22846;42.654;23.314;2024-01-07T11:22:33;92580.91;;;24.97;48.10
31337;BME280;22846;42.654;23.314;2024-01-07T11:25:02;92573.91;;;24.85;48.43
31337;BME280;22846;42.654;23.314;2024-01-07T11:27:31;92585.88;;;24.93;48.42
31337;BME280;22846;42.654;23.314;2024-01-07T11:30:18;92586.56;;;24.83;47.36
31337;BME280;22846;42.654;23.314;2024-01-07T11:32:44;92580.31;;;24.77;46.85
31337;BME280;22846;42.654;23.314;2024-01-07T11:35:12;92585.53;;;24.80;47.40
31337;BME280;22846;42.654;23.314;2024-01-07T11:37:38;92581.56;;;24.81;47.13
31337;BME280;22846;42.654;23.314;2024-01-07T11:40:05;92586.03;;;24.79;46.78
31337;BME280;22846;42.654;23.314;2024-01-07T11:42:32;92581.25;;;24.69;45.87
31337;BME280;22846;42.654;23.314;2024-01-07T11:44:57;92568.53;;;24.60;45.73
31337;BME280;22846;42.654;23.314;2024-01-07T11:47:24;92589.72;;;24.71;46.81
31337;BME280;22846;42.654;23.314;2024-01-07T11:49:51;92600.66;;;24.71;46.91
31337;BME280;22846;42.654;23.314;2024-01-07T11:52:17;92591.69;;;24.70;46.76
31337;BME280;22846;42.654;23.314;2024-01-07T11:54:42;92598.16;;;24.73;47.10
31337;BME280;22846;42.654;23.314;2024-01-07T11:57:10;92583.78;;;24.72;46.97
31337;BME280;22846;42.654;23.314;2024-01-07T11:59:36;92596.72;;;24.82;47.05
31337;BME280;22846;42.654;23.314;2024-01-07T12:02:03;92592.03;;;24.83;47.20
31337;BME280;22846;42.654;23.314;2024-01-07T12:04:32;92577.38;;;24.86;47.09
31337;BME280;22846;42.654;23.314;2024-01-07T12:06:58;92582.34;;;24.82;47.39
31337;BME280;22846;42.654;23.314;2024-01-07T12:09:27;92573.84;;;24.75;46.33
31337;BME280;22846;42.654;23.314;2024-01-07T12:11:53;92574.41;;;24.84;45.92
31337;BME280;22846;42.654;23.314;2024-01-07T12:14:19;92566.69;;;24.82;45.26
31337;BME280;22846;42.654;23.314;2024-01-07T12:16:45;92585.09;;;24.87;45.44
31337;BME280;22846;42.654;23.314;2024-01-07T12:19:11;92583.38;;;24.90;44.93
31337;BME280;22846;42.654;23.314;2024-01-07T12:21:37;92578.41;;;24.88;44.72
31337;BME280;22846;42.654;23.314;2024-01-07T12:24:03;92606.31;;;25.03;44.99
31337;BME280;22846;42.654;23.314;2024-01-07T12:26:29;92587.19;;;25.09;44.49
31337;BME280;22846;42.654;23.314;2024-01-07T12:28:57;92560.06;;;25.00;44.72
31337;BME280;22846;42.654;23.314;2024-01-07T12:31:33;92570.59;;;25.12;45.02
31337;BME280;22846;42.654;23.314;2024-01-07T12:34:00;92576.56;;;25.16;45.19
31337;BME280;22846;42.654;23.314;2024-01-07T12:36:26;92585.75;;;25.19;45.58
31337;BME280;22846;42.654;23.314;2024-01-07T12:38:52;92585.03;;;25.18;45.62
31337;BME280;22846;42.654;23.314;2024-01-07T12:41:21;92593.72;;;25.17;46.02
31337;BME280;22846;42.654;23.314;2024-01-07T12:44:04;92583.03;;;25.19;45.79
31337;BME280;22846;42.654;23.314;2024-01-07T12:46:29;92582.78;;;25.17;45.92
31337;BME280;22846;42.654;23.314;2024-01-07T12:48:56;92580.75;;;25.12;46.20
31337;BME280;22846;42.654;23.314;2024-01-07T12:51:22;92573.28;;;25.07;46.41
31337;BME280;22846;42.654;23.314;2024-01-07T12:53:47;92582.47;;;25.09;44.46
31337;BME280;22846;42.654;23.314;2024-01-07T12:56:13;92581.19;;;24.99;45.34